Terminal Aerodrome Forecast
Issued by NWS

Home | Current Version | Previous Version | Text Only | Print | Product List | Glossary On
Versions: 1 2 3 4 5 6 7 8 9 10 11 12 13 14 15 16
000
FTUS42 KTBW 241127
TAFRSW
TAF
KRSW 241127Z 2412/2512 06007KT 5SM BR FEW015 FEW250
     FM241400 09010KT P6SM SCT035 SCT250
     FM242000 10014G20KT P6SM VCTS BKN050CB BKN100
     FM250000 09010KT P6SM SCT025 BKN050 OVC100
     FM250300 09012G18KT P6SM SCT050 SCT100 BKN250
     FM250600 09008KT P6SM FEW015 SCT250=

USA.gov is the U.S. government's official web portal to all federal, state and local government web resources and services.